sensor_id;sensor_type;location;lat;lon;timestamp;temperature;humidity
56240;DHT22;42154;51.992;5.896;2023-07-30T00:01:42;16.70;99.90
56240;DHT22;42154;51.992;5.896;2023-07-30T00:04:07;16.70;99.90
56240;DHT22;42154;51.992;5.896;2023-07-30T00:06:33;16.70;99.90
56240;DHT22;42154;51.992;5.896;2023-07-30T00:08:59;16.60;99.90
56240;DHT22;42154;51.992;5.896;2023-07-30T00:11:25;16.60;99.90
56240;DHT22;42154;51.992;5.896;2023-07-30T00:13:50;16.60;99.90
56240;DHT22;42154;51.992;5.896;2023-07-30T00:16:16;16.60;99.90
56240;DHT22;42154;51.992;5.896;2023-07-30T00:18:42;16.60;99.90
56240;DHT22;42154;51.992;5.896;2023-07-30T00:21:07;16.60;99.90
56240;DHT22;42154;51.992;5.896;2023-07-30T00:23:33;16.60;99.90
56240;DHT22;42154;51.992;5.896;2023-07-30T00:25:59;16.50;99.90
56240;DHT22;42154;51.992;5.896;2023-07-30T00:28:24;16.50;99.90
56240;DHT22;42154;51.992;5.896;2023-07-30T00:30:50;16.50;99.90
56240;DHT22;42154;51.992;5.896;2023-07-30T00:33:16;16.60;99.90
56240;DHT22;42154;51.992;5.896;2023-07-30T00:35:41;16.50;99.90
56240;DHT22;42154;51.992;5.896;2023-07-30T00:38:07;16.50;99.90
56240;DHT22;42154;51.992;5.896;2023-07-30T00:40:33;16.50;99.90
56240;DHT22;42154;51.992;5.896;2023-07-30T00:43:04;16.50;99.90
56240;DHT22;42154;51.992;5.896;2023-07-30T00:45:30;16.50;99.90
56240;DHT22;42154;51.992;5.896;2023-07-30T00:47:56;16.50;99.90
56240;DHT22;42154;51.992;5.896;2023-07-30T00:50:22;16.50;99.90
56240;DHT22;42154;51.992;5.896;2023-07-30T00:52:48;16.50;99.90
56240;DHT22;42154;51.992;5.896;2023-07-30T00:55:15;16.50;99.90
56240;DHT22;42154;51.992;5.896;2023-07-30T00:57:41;16.40;99.90
56240;DHT22;42154;51.992;5.896;2023-07-30T01:00:08;16.40;99.90
56240;DHT22;42154;51.992;5.896;2023-07-30T01:02:37;16.40;99.90
56240;DHT22;42154;51.992;5.896;2023-07-30T01:05:03;16.40;99.90
56240;DHT22;42154;51.992;5.896;2023-07-30T01:07:30;16.30;99.90
56240;DHT22;42154;51.992;5.896;2023-07-30T01:09:57;16.30;99.90
56240;DHT22;42154;51.992;5.896;2023-07-30T01:12:23;16.30;99.90
56240;DHT22;42154;51.992;5.896;2023-07-30T01:14:49;16.30;99.90
56240;DHT22;42154;51.992;5.896;2023-07-30T01:17:16;16.30;99.90
56240;DHT22;42154;51.992;5.896;2023-07-30T01:19:43;16.20;99.90
56240;DHT22;42154;51.992;5.896;2023-07-30T01:22:09;16.20;99.90
56240;DHT22;42154;51.992;5.896;2023-07-30T01:24:35;16.20;99.90
56240;DHT22;42154;51.992;5.896;2023-07-30T01:27:08;16.20;99.90
56240;DHT22;42154;51.992;5.896;2023-07-30T01:29:51;16.20;99.90
56240;DHT22;42154;51.992;5.896;2023-07-30T01:32:20;16.10;99.90
56240;DHT22;42154;51.992;5.896;2023-07-30T01:34:52;16.10;99.90
56240;DHT22;42154;51.992;5.896;2023-07-30T01:37:19;16.10;99.90
56240;DHT22;42154;51.992;5.896;2023-07-30T01:39:46;16.00;99.90
56240;DHT22;42154;51.992;5.896;2023-07-30T01:42:13;16.00;99.90
56240;DHT22;42154;51.992;5.896;2023-07-30T01:44:39;16.00;99.90
56240;DHT22;42154;51.992;5.896;2023-07-30T01:47:04;16.00;99.90
56240;DHT22;42154;51.992;5.896;2023-07-30T01:49:30;16.00;99.90
56240;DHT22;42154;51.992;5.896;2023-07-30T01:51:56;16.00;99.90
56240;DHT22;42154;51.992;5.896;2023-07-30T01:54:22;16.00;99.90
56240;DHT22;42154;51.992;5.896;2023-07-30T01:56:48;16.00;99.90
56240;DHT22;42154;51.992;5.896;2023-07-30T01:59:14;15.90;99.90
56240;DHT22;42154;51.992;5.896;2023-07-30T02:01:41;15.90;99.90
56240;DHT22;42154;51.992;5.896;2023-07-30T02:04:07;15.90;99.90
56240;DHT22;42154;51.992;5.896;2023-07-30T02:06:32;15.90;99.90
56240;DHT22;42154;51.992;5.896;2023-07-30T02:08:58;15.90;99.90
56240;DHT22;42154;51.992;5.896;2023-07-30T02:11:24;15.90;99.90
56240;DHT22;42154;51.992;5.896;2023-07-30T02:13:49;15.90;99.90
56240;DHT22;42154;51.992;5.896;2023-07-30T02:16:15;15.90;99.90
56240;DHT22;42154;51.992;5.896;2023-07-30T02:18:41;15.90;99.90
56240;DHT22;42154;51.992;5.896;2023-07-30T02:21:07;15.90;99.90
56240;DHT22;42154;51.992;5.896;2023-07-30T02:23:32;15.90;99.90
56240;DHT22;42154;51.992;5.896;2023-07-30T02:25:58;15.90;99.90
56240;DHT22;42154;51.992;5.896;2023-07-30T02:28:24;15.90;99.90
56240;DHT22;42154;51.992;5.896;2023-07-30T02:30:50;15.90;99.90
56240;DHT22;42154;51.992;5.896;2023-07-30T02:33:15;15.90;99.90
56240;DHT22;42154;51.992;5.896;2023-07-30T02:35:43;16.00;99.90
56240;DHT22;42154;51.992;5.896;2023-07-30T02:38:09;16.00;99.90
56240;DHT22;42154;51.992;5.896;2023-07-30T02:40:35;16.00;99.90
56240;DHT22;42154;51.992;5.896;2023-07-30T02:43:01;16.10;99.90
56240;DHT22;42154;51.992;5.896;2023-07-30T02:45:27;16.10;99.90
56240;DHT22;42154;51.992;5.896;2023-07-30T02:47:52;16.10;99.90
56240;DHT22;42154;51.992;5.896;2023-07-30T02:50:18;16.20;99.90
56240;DHT22;42154;51.992;5.896;2023-07-30T02:52:44;16.20;99.90
56240;DHT22;42154;51.992;5.896;2023-07-30T02:55:10;16.20;99.90
56240;DHT22;42154;51.992;5.896;2023-07-30T02:57:36;16.20;99.90
56240;DHT22;42154;51.992;5.896;2023-07-30T03:00:02;16.20;99.90
56240;DHT22;42154;51.992;5.896;2023-07-30T03:02:29;16.20;99.90
56240;DHT22;42154;51.992;5.896;2023-07-30T03:04:55;16.20;99.90
56240;DHT22;42154;51.992;5.896;2023-07-30T03:07:21;16.20;99.90
56240;DHT22;42154;51.992;5.896;2023-07-30T03:09:47;16.20;99.90
56240;DHT22;42154;51.992;5.896;2023-07-30T03:12:13;16.20;99.90
56240;DHT22;42154;51.992;5.896;2023-07-30T03:14:38;16.20;99.90
56240;DHT22;42154;51.992;5.896;2023-07-30T03:17:04;16.20;99.90
56240;DHT22;42154;51.992;5.896;2023-07-30T03:19:31;16.20;99.90
56240;DHT22;42154;51.992;5.896;2023-07-30T03:21:57;16.20;99.90
56240;DHT22;42154;51.992;5.896;2023-07-30T03:24:23;16.30;99.90
56240;DHT22;42154;51.992;5.896;2023-07-30T03:26:48;16.20;99.90
56240;DHT22;42154;51.992;5.896;2023-07-30T03:29:15;16.30;99.90
56240;DHT22;42154;51.992;5.896;2023-07-30T03:31:41;16.20;99.90
56240;DHT22;42154;51.992;5.896;2023-07-30T03:34:07;16.20;99.90
56240;DHT22;42154;51.992;5.896;2023-07-30T03:36:32;16.20;99.90
56240;DHT22;42154;51.992;5.896;2023-07-30T03:38:58;16.20;99.90
56240;DHT22;42154;51.992;5.896;2023-07-30T03:41:24;16.30;99.90
56240;DHT22;42154;51.992;5.896;2023-07-30T03:43:52;16.20;99.90
56240;DHT22;42154;51.992;5.896;2023-07-30T03:46:18;16.20;99.90
56240;DHT22;42154;51.992;5.896;2023-07-30T03:48:44;16.20;99.90
56240;DHT22;42154;51.992;5.896;2023-07-30T03:51:09;16.30;99.90
56240;DHT22;42154;51.992;5.896;2023-07-30T03:53:35;16.30;99.90
56240;DHT22;42154;51.992;5.896;2023-07-30T03:56:01;16.20;99.90
56240;DHT22;42154;51.992;5.896;2023-07-30T03:58:27;16.30;99.90
56240;DHT22;42154;51.992;5.896;2023-07-30T04:00:53;16.30;99.90
56240;DHT22;42154;51.992;5.896;2023-07-30T04:03:18;16.30;99.90
56240;DHT22;42154;51.992;5.896;2023-07-30T04:05:44;16.30;99.90
56240;DHT22;42154;51.992;5.896;2023-07-30T04:08:10;16.30;99.90
56240;DHT22;42154;51.992;5.896;2023-07-30T04:10:35;16.30;99.90
56240;DHT22;42154;51.992;5.896;2023-07-30T04:13:01;16.30;99.90
56240;DHT22;42154;51.992;5.896;2023-07-30T04:15:27;16.30;99.90
56240;DHT22;42154;51.992;5.896;2023-07-30T04:17:53;16.40;99.90
56240;DHT22;42154;51.992;5.896;2023-07-30T04:20:19;16.40;99.90
56240;DHT22;42154;51.992;5.896;2023-07-30T04:22:45;16.40;99.90
56240;DHT22;42154;51.992;5.896;2023-07-30T04:25:10;16.40;99.90
56240;DHT22;42154;51.992;5.896;2023-07-30T04:27:37;16.40;99.90
56240;DHT22;42154;51.992;5.896;2023-07-30T04:30:06;16.40;99.90
56240;DHT22;42154;51.992;5.896;2023-07-30T04:32:33;16.40;99.90
56240;DHT22;42154;51.992;5.896;2023-07-30T04:34:59;16.40;99.90
56240;DHT22;42154;51.992;5.896;2023-07-30T04:37:24;16.40;99.90
56240;DHT22;42154;51.992;5.896;2023-07-30T04:39:52;16.40;99.90
56240;DHT22;42154;51.992;5.896;2023-07-30T04:42:18;16.50;99.90
56240;DHT22;42154;51.992;5.896;2023-07-30T04:44:44;16.50;99.90
56240;DHT22;42154;51.992;5.896;2023-07-30T04:47:13;16.50;99.90
56240;DHT22;42154;51.992;5.896;2023-07-30T04:49:39;16.60;99.90
56240;DHT22;42154;51.992;5.896;2023-07-30T04:52:07;16.60;99.90
56240;DHT22;42154;51.992;5.896;2023-07-30T04:54:33;16.60;99.90
56240;DHT22;42154;51.992;5.896;2023-07-30T04:57:02;16.60;99.90
56240;DHT22;42154;51.992;5.896;2023-07-30T04:59:28;16.60;99.90
56240;DHT22;42154;51.992;5.896;2023-07-30T05:01:53;16.60;99.90
56240;DHT22;42154;51.992;5.896;2023-07-30T05:04:19;16.70;99.90
56240;DHT22;42154;51.992;5.896;2023-07-30T05:06:45;16.70;99.90
56240;DHT22;42154;51.992;5.896;2023-07-30T05:09:11;16.70;99.90
56240;DHT22;42154;51.992;5.896;2023-07-30T05:11:39;16.70;99.90
56240;DHT22;42154;51.992;5.896;2023-07-30T05:14:05;16.80;99.90
56240;DHT22;42154;51.992;5.896;2023-07-30T05:16:30;16.80;99.90
56240;DHT22;42154;51.992;5.896;2023-07-30T05:18:56;16.90;99.90
56240;DHT22;42154;51.992;5.896;2023-07-30T05:21:22;16.90;99.90
56240;DHT22;42154;51.992;5.896;2023-07-30T05:23:48;16.90;99.90
56240;DHT22;42154;51.992;5.896;2023-07-30T05:26:13;17.00;99.90
56240;DHT22;42154;51.992;5.896;2023-07-30T05:28:39;17.00;99.90
56240;DHT22;42154;51.992;5.896;2023-07-30T05:31:05;17.10;99.90
56240;DHT22;42154;51.992;5.896;2023-07-30T05:33:31;17.10;99.90
56240;DHT22;42154;51.992;5.896;2023-07-30T05:35:56;17.10;99.90
56240;DHT22;42154;51.992;5.896;2023-07-30T05:38:22;17.10;99.90
56240;DHT22;42154;51.992;5.896;2023-07-30T05:40:48;17.10;99.90
56240;DHT22;42154;51.992;5.896;2023-07-30T05:43:13;17.20;99.90
56240;DHT22;42154;51.992;5.896;2023-07-30T05:45:39;17.20;99.90
56240;DHT22;42154;51.992;5.896;2023-07-30T05:48:05;17.30;99.90
56240;DHT22;42154;51.992;5.896;2023-07-30T05:50:31;17.30;99.90
56240;DHT22;42154;51.992;5.896;2023-07-30T05:52:56;17.30;99.90
56240;DHT22;42154;51.992;5.896;2023-07-30T05:55:22;17.30;99.90
56240;DHT22;42154;51.992;5.896;2023-07-30T05:57:48;17.40;99.90
56240;DHT22;42154;51.992;5.896;2023-07-30T06:00:13;17.40;99.90
56240;DHT22;42154;51.992;5.896;2023-07-30T06:02:39;17.40;99.90
56240;DHT22;42154;51.992;5.896;2023-07-30T06:05:05;17.50;99.90
56240;DHT22;42154;51.992;5.896;2023-07-30T06:07:31;17.50;99.90
56240;DHT22;42154;51.992;5.896;2023-07-30T06:09:57;17.50;99.90
56240;DHT22;42154;51.992;5.896;2023-07-30T06:12:22;17.60;99.90
56240;DHT22;42154;51.992;5.896;2023-07-30T06:14:48;17.50;99.90
56240;DHT22;42154;51.992;5.896;2023-07-30T06:17:14;17.50;99.90
56240;DHT22;42154;51.992;5.896;2023-07-30T06:19:39;17.50;99.90
56240;DHT22;42154;51.992;5.896;2023-07-30T06:22:05;17.60;99.90
56240;DHT22;42154;51.992;5.896;2023-07-30T06:24:31;17.60;99.90
56240;DHT22;42154;51.992;5.896;2023-07-30T06:26:57;17.70;99.90
56240;DHT22;42154;51.992;5.896;2023-07-30T06:29:22;17.70;99.90
56240;DHT22;42154;51.992;5.896;2023-07-30T06:31:48;17.80;99.90
56240;DHT22;42154;51.992;5.896;2023-07-30T06:34:14;17.90;99.90
56240;DHT22;42154;51.992;5.896;2023-07-30T06:36:40;17.80;99.90
56240;DHT22;42154;51.992;5.896;2023-07-30T06:39:06;17.80;99.90
56240;DHT22;42154;51.992;5.896;2023-07-30T06:41:32;17.80;99.90
56240;DHT22;42154;51.992;5.896;2023-07-30T06:43:58;17.80;99.90
56240;DHT22;42154;51.992;5.896;2023-07-30T06:46:23;17.90;99.90
56240;DHT22;42154;51.992;5.896;2023-07-30T06:48:49;17.90;99.90
56240;DHT22;42154;51.992;5.896;2023-07-30T06:51:19;17.90;99.90
56240;DHT22;42154;51.992;5.896;2023-07-30T06:53:45;18.00;99.90
56240;DHT22;42154;51.992;5.896;2023-07-30T06:56:10;18.10;99.90
56240;DHT22;42154;51.992;5.896;2023-07-30T06:58:36;18.20;99.90
56240;DHT22;42154;51.992;5.896;2023-07-30T07:01:02;18.30;99.90
56240;DHT22;42154;51.992;5.896;2023-07-30T07:03:28;18.30;99.90
56240;DHT22;42154;51.992;5.896;2023-07-30T07:05:54;18.30;99.90
56240;DHT22;42154;51.992;5.896;2023-07-30T07:08:20;18.40;99.90
56240;DHT22;42154;51.992;5.896;2023-07-30T07:10:47;18.30;99.90
56240;DHT22;42154;51.992;5.896;2023-07-30T07:13:12;18.40;99.90
56240;DHT22;42154;51.992;5.896;2023-07-30T07:15:44;18.40;99.90
56240;DHT22;42154;51.992;5.896;2023-07-30T07:18:10;18.50;99.90
56240;DHT22;42154;51.992;5.896;2023-07-30T07:20:36;18.60;99.90
56240;DHT22;42154;51.992;5.896;2023-07-30T07:23:03;18.60;99.90
56240;DHT22;42154;51.992;5.896;2023-07-30T07:25:29;18.70;99.90
56240;DHT22;42154;51.992;5.896;2023-07-30T07:27:55;18.80;99.90
56240;DHT22;42154;51.992;5.896;2023-07-30T07:30:20;18.90;99.90
56240;DHT22;42154;51.992;5.896;2023-07-30T07:32:46;18.90;99.90
56240;DHT22;42154;51.992;5.896;2023-07-30T07:35:16;19.00;99.90
56240;DHT22;42154;51.992;5.896;2023-07-30T07:37:43;19.00;99.90
56240;DHT22;42154;51.992;5.896;2023-07-30T07:40:09;19.00;99.90
56240;DHT22;42154;51.992;5.896;2023-07-30T07:42:35;19.10;99.90
56240;DHT22;42154;51.992;5.896;2023-07-30T07:45:01;19.20;99.90
56240;DHT22;42154;51.992;5.896;2023-07-30T07:47:27;19.40;99.90
56240;DHT22;42154;51.992;5.896;2023-07-30T07:49:53;19.60;99.90
56240;DHT22;42154;51.992;5.896;2023-07-30T07:52:19;19.50;99.90
56240;DHT22;42154;51.992;5.896;2023-07-30T07:54:46;19.50;99.90
56240;DHT22;42154;51.992;5.896;2023-07-30T07:57:12;19.40;99.90
56240;DHT22;42154;51.992;5.896;2023-07-30T07:59:37;19.40;99.90
56240;DHT22;42154;51.992;5.896;2023-07-30T08:02:03;19.30;99.90
56240;DHT22;42154;51.992;5.896;2023-07-30T08:04:29;19.30;99.90
56240;DHT22;42154;51.992;5.896;2023-07-30T08:06:55;19.30;99.90
56240;DHT22;42154;51.992;5.896;2023-07-30T08:09:25;19.30;99.90
56240;DHT22;42154;51.992;5.896;2023-07-30T08:11:51;19.30;99.90
56240;DHT22;42154;51.992;5.896;2023-07-30T08:14:16;19.40;99.90
56240;DHT22;42154;51.992;5.896;2023-07-30T08:16:42;19.40;99.90
56240;DHT22;42154;51.992;5.896;2023-07-30T08:19:08;19.50;99.90
56240;DHT22;42154;51.992;5.896;2023-07-30T08:21:33;19.60;99.90
56240;DHT22;42154;51.992;5.896;2023-07-30T08:23:59;19.60;99.90
56240;DHT22;42154;51.992;5.896;2023-07-30T08:26:26;19.60;99.90
56240;DHT22;42154;51.992;5.896;2023-07-30T08:28:52;19.60;99.90
56240;DHT22;42154;51.992;5.896;2023-07-30T08:31:18;19.60;99.90
56240;DHT22;42154;51.992;5.896;2023-07-30T08:33:43;19.60;99.90
56240;DHT22;42154;51.992;5.896;2023-07-30T08:36:09;19.70;99.90
56240;DHT22;42154;51.992;5.896;2023-07-30T08:38:35;19.70;99.90
56240;DHT22;42154;51.992;5.896;2023-07-30T08:41:01;19.80;99.90
56240;DHT22;42154;51.992;5.896;2023-07-30T08:43:27;19.80;99.90
56240;DHT22;42154;51.992;5.896;2023-07-30T08:45:52;19.80;99.90
56240;DHT22;42154;51.992;5.896;2023-07-30T08:48:18;20.00;99.90
56240;DHT22;42154;51.992;5.896;2023-07-30T08:50:44;20.20;99.90
56240;DHT22;42154;51.992;5.896;2023-07-30T08:53:11;20.30;99.90
56240;DHT22;42154;51.992;5.896;2023-07-30T08:55:39;20.30;99.90
56240;DHT22;42154;51.992;5.896;2023-07-30T08:58:05;20.30;99.90
56240;DHT22;42154;51.992;5.896;2023-07-30T09:00:37;20.40;99.90
56240;DHT22;42154;51.992;5.896;2023-07-30T09:03:04;20.50;99.90
56240;DHT22;42154;51.992;5.896;2023-07-30T09:05:30;20.50;99.90
56240;DHT22;42154;51.992;5.896;2023-07-30T09:07:57;20.50;99.90
56240;DHT22;42154;51.992;5.896;2023-07-30T09:10:23;20.50;99.90
56240;DHT22;42154;51.992;5.896;2023-07-30T09:12:53;20.30;99.90
56240;DHT22;42154;51.992;5.896;2023-07-30T09:15:35;20.30;99.90
56240;DHT22;42154;51.992;5.896;2023-07-30T09:18:05;20.30;99.90
56240;DHT22;42154;51.992;5.896;2023-07-30T09:20:38;20.30;99.90
56240;DHT22;42154;51.992;5.896;2023-07-30T09:23:06;20.30;99.90
56240;DHT22;42154;51.992;5.896;2023-07-30T09:25:33;20.40;99.90
56240;DHT22;42154;51.992;5.896;2023-07-30T09:27:58;20.50;99.90
56240;DHT22;42154;51.992;5.896;2023-07-30T09:30:25;20.60;99.90
56240;DHT22;42154;51.992;5.896;2023-07-30T09:32:56;20.70;99.90
56240;DHT22;42154;51.992;5.896;2023-07-30T09:35:23;20.90;99.90
56240;DHT22;42154;51.992;5.896;2023-07-30T09:37:59;21.00;99.90
56240;DHT22;42154;51.992;5.896;2023-07-30T09:40:33;21.10;99.90
56240;DHT22;42154;51.992;5.896;2023-07-30T09:42:59;21.30;99.90
56240;DHT22;42154;51.992;5.896;2023-07-30T09:45:25;21.30;99.90
56240;DHT22;42154;51.992;5.896;2023-07-30T09:47:54;21.20;99.90
56240;DHT22;42154;51.992;5.896;2023-07-30T09:50:19;21.30;99.90
56240;DHT22;42154;51.992;5.896;2023-07-30T09:52:45;21.30;99.90
56240;DHT22;42154;51.992;5.896;2023-07-30T09:55:12;21.30;99.90
56240;DHT22;42154;51.992;5.896;2023-07-30T09:57:38;21.30;99.90
56240;DHT22;42154;51.992;5.896;2023-07-30T10:00:05;21.50;99.90
56240;DHT22;42154;51.992;5.896;2023-07-30T10:02:38;21.60;99.90
56240;DHT22;42154;51.992;5.896;2023-07-30T10:05:10;21.70;99.90
56240;DHT22;42154;51.992;5.896;2023-07-30T10:07:40;21.70;99.90
56240;DHT22;42154;51.992;5.896;2023-07-30T10:10:08;21.60;99.90
56240;DHT22;42154;51.992;5.896;2023-07-30T10:12:35;21.50;99.90
56240;DHT22;42154;51.992;5.896;2023-07-30T10:15:02;21.30;99.90
56240;DHT22;42154;51.992;5.896;2023-07-30T10:17:27;21.20;99.90
56240;DHT22;42154;51.992;5.896;2023-07-30T10:19:56;21.10;99.90
56240;DHT22;42154;51.992;5.896;2023-07-30T10:22:23;21.00;99.90
56240;DHT22;42154;51.992;5.896;2023-07-30T10:25:01;20.80;99.90
56240;DHT22;42154;51.992;5.896;2023-07-30T10:27:36;20.70;99.90
56240;DHT22;42154;51.992;5.896;2023-07-30T10:30:09;20.60;99.90
56240;DHT22;42154;51.992;5.896;2023-07-30T10:33:02;20.60;99.90
56240;DHT22;42154;51.992;5.896;2023-07-30T10:35:45;20.70;99.90
56240;DHT22;42154;51.992;5.896;2023-07-30T10:38:22;20.80;99.90
56240;DHT22;42154;51.992;5.896;2023-07-30T10:41:09;21.00;99.90
56240;DHT22;42154;51.992;5.896;2023-07-30T10:43:40;21.20;99.90
56240;DHT22;42154;51.992;5.896;2023-07-30T10:46:10;21.40;99.90
56240;DHT22;42154;51.992;5.896;2023-07-30T10:48:42;21.60;99.90
56240;DHT22;42154;51.992;5.896;2023-07-30T10:51:10;21.70;99.90
56240;DHT22;42154;51.992;5.896;2023-07-30T10:53:36;21.80;99.90
56240;DHT22;42154;51.992;5.896;2023-07-30T10:56:03;21.80;99.90
56240;DHT22;42154;51.992;5.896;2023-07-30T10:58:34;21.80;99.90
56240;DHT22;42154;51.992;5.896;2023-07-30T11:01:05;22.10;99.90
56240;DHT22;42154;51.992;5.896;2023-07-30T11:03:31;22.30;99.90
56240;DHT22;42154;51.992;5.896;2023-07-30T11:05:57;22.40;99.90
56240;DHT22;42154;51.992;5.896;2023-07-30T11:10:59;22.40;99.90
56240;DHT22;42154;51.992;5.896;2023-07-30T11:13:26;22.40;99.90
56240;DHT22;42154;51.992;5.896;2023-07-30T11:15:52;22.40;99.90
56240;DHT22;42154;51.992;5.896;2023-07-30T11:18:17;22.30;99.90
56240;DHT22;42154;51.992;5.896;2023-07-30T11:20:43;22.30;99.90
56240;DHT22;42154;51.992;5.896;2023-07-30T11:25:46;22.10;99.90
56240;DHT22;42154;51.992;5.896;2023-07-30T11:28:12;22.10;99.90
56240;DHT22;42154;51.992;5.896;2023-07-30T11:30:38;22.10;99.90
56240;DHT22;42154;51.992;5.896;2023-07-30T11:33:04;22.20;99.90
56240;DHT22;42154;51.992;5.896;2023-07-30T11:35:30;22.10;99.90
56240;DHT22;42154;51.992;5.896;2023-07-30T11:37:56;22.10;99.90
56240;DHT22;42154;51.992;5.896;2023-07-30T11:40:23;22.20;99.90
56240;DHT22;42154;51.992;5.896;2023-07-30T11:42:49;22.40;99.90
56240;DHT22;42154;51.992;5.896;2023-07-30T11:45:20;22.70;99.90
56240;DHT22;42154;51.992;5.896;2023-07-30T11:47:47;22.80;99.90
56240;DHT22;42154;51.992;5.896;2023-07-30T11:50:13;23.00;99.90
56240;DHT22;42154;51.992;5.896;2023-07-30T11:52:55;23.10;99.90
56240;DHT22;42154;51.992;5.896;2023-07-30T11:55:22;23.00;99.90
56240;DHT22;42154;51.992;5.896;2023-07-30T11:57:49;22.90;99.90
56240;DHT22;42154;51.992;5.896;2023-07-30T12:00:15;22.80;99.90
56240;DHT22;42154;51.992;5.896;2023-07-30T12:02:41;22.80;99.90
56240;DHT22;42154;51.992;5.896;2023-07-30T12:05:10;22.90;99.90
56240;DHT22;42154;51.992;5.896;2023-07-30T12:07:40;23.00;99.90
56240;DHT22;42154;51.992;5.896;2023-07-30T12:10:11;23.00;99.90
56240;DHT22;42154;51.992;5.896;2023-07-30T12:12:44;22.90;99.90
56240;DHT22;42154;51.992;5.896;2023-07-30T12:15:11;22.90;99.90
56240;DHT22;42154;51.992;5.896;2023-07-30T12:17:40;22.90;99.90
56240;DHT22;42154;51.992;5.896;2023-07-30T12:20:06;23.00;99.90
56240;DHT22;42154;51.992;5.896;2023-07-30T12:22:33;23.10;99.90
56240;DHT22;42154;51.992;5.896;2023-07-30T12:25:04;23.20;99.90
56240;DHT22;42154;51.992;5.896;2023-07-30T12:27:30;23.30;99.90
56240;DHT22;42154;51.992;5.896;2023-07-30T12:29:56;23.30;99.90
56240;DHT22;42154;51.992;5.896;2023-07-30T12:32:22;23.30;99.90
56240;DHT22;42154;51.992;5.896;2023-07-30T12:34:47;23.20;99.90
56240;DHT22;42154;51.992;5.896;2023-07-30T12:37:13;23.20;99.90
56240;DHT22;42154;51.992;5.896;2023-07-30T12:39:39;23.20;99.90
56240;DHT22;42154;51.992;5.896;2023-07-30T12:42:05;23.40;99.90
56240;DHT22;42154;51.992;5.896;2023-07-30T12:44:30;23.50;99.90
56240;DHT22;42154;51.992;5.896;2023-07-30T12:46:56;23.70;99.90
56240;DHT22;42154;51.992;5.896;2023-07-30T12:49:22;23.70;99.90
56240;DHT22;42154;51.992;5.896;2023-07-30T12:51:48;23.60;99.50
56240;DHT22;42154;51.992;5.896;2023-07-30T12:54:13;23.60;99.80
56240;DHT22;42154;51.992;5.896;2023-07-30T12:56:39;23.70;99.50
56240;DHT22;42154;51.992;5.896;2023-07-30T12:59:05;23.80;99.60
56240;DHT22;42154;51.992;5.896;2023-07-30T13:01:30;23.80;99.30
56240;DHT22;42154;51.992;5.896;2023-07-30T13:03:56;23.80;99.20
56240;DHT22;42154;51.992;5.896;2023-07-30T13:06:22;23.80;99.30
56240;DHT22;42154;51.992;5.896;2023-07-30T13:08:47;23.90;99.10
56240;DHT22;42154;51.992;5.896;2023-07-30T13:11:13;24.10;99.40
56240;DHT22;42154;51.992;5.896;2023-07-30T13:13:39;24.40;99.50
56240;DHT22;42154;51.992;5.896;2023-07-30T13:16:05;24.50;98.90
56240;DHT22;42154;51.992;5.896;2023-07-30T13:18:31;24.50;98.80
56240;DHT22;42154;51.992;5.896;2023-07-30T13:20:58;24.30;98.50
56240;DHT22;42154;51.992;5.896;2023-07-30T13:23:24;24.10;98.50
56240;DHT22;42154;51.992;5.896;2023-07-30T13:25:54;23.90;99.00
56240;DHT22;42154;51.992;5.896;2023-07-30T13:28:20;23.70;99.30
56240;DHT22;42154;51.992;5.896;2023-07-30T13:30:45;23.60;99.10
56240;DHT22;42154;51.992;5.896;2023-07-30T13:33:11;23.40;99.30
56240;DHT22;42154;51.992;5.896;2023-07-30T13:35:37;23.20;99.20
56240;DHT22;42154;51.992;5.896;2023-07-30T13:38:02;23.00;99.60
56240;DHT22;42154;51.992;5.896;2023-07-30T13:40:28;22.90;99.40
56240;DHT22;42154;51.992;5.896;2023-07-30T13:42:54;23.00;99.10
56240;DHT22;42154;51.992;5.896;2023-07-30T13:45:20;23.10;99.20
56240;DHT22;42154;51.992;5.896;2023-07-30T13:47:45;23.30;98.90
56240;DHT22;42154;51.992;5.896;2023-07-30T13:50:11;23.60;99.00
56240;DHT22;42154;51.992;5.896;2023-07-30T13:52:37;23.70;98.50
56240;DHT22;42154;51.992;5.896;2023-07-30T13:55:02;23.80;98.20
56240;DHT22;42154;51.992;5.896;2023-07-30T13:57:28;23.90;98.20
56240;DHT22;42154;51.992;5.896;2023-07-30T13:59:54;23.90;97.60
56240;DHT22;42154;51.992;5.896;2023-07-30T14:02:20;23.70;97.30
56240;DHT22;42154;51.992;5.896;2023-07-30T14:04:46;23.60;97.70
56240;DHT22;42154;51.992;5.896;2023-07-30T14:07:11;23.50;97.60
56240;DHT22;42154;51.992;5.896;2023-07-30T14:09:37;23.50;97.50
56240;DHT22;42154;51.992;5.896;2023-07-30T14:12:03;23.30;97.00
56240;DHT22;42154;51.992;5.896;2023-07-30T14:14:29;23.10;97.10
56240;DHT22;42154;51.992;5.896;2023-07-30T14:16:55;23.00;97.50
56240;DHT22;42154;51.992;5.896;2023-07-30T14:19:21;23.00;97.60
56240;DHT22;42154;51.992;5.896;2023-07-30T14:21:46;23.10;97.30
56240;DHT22;42154;51.992;5.896;2023-07-30T14:24:12;23.10;97.00
56240;DHT22;42154;51.992;5.896;2023-07-30T14:26:40;23.20;97.00
56240;DHT22;42154;51.992;5.896;2023-07-30T14:29:05;23.20;96.90
56240;DHT22;42154;51.992;5.896;2023-07-30T14:31:31;23.20;97.10
56240;DHT22;42154;51.992;5.896;2023-07-30T14:33:57;23.20;97.10
56240;DHT22;42154;51.992;5.896;2023-07-30T14:36:23;23.20;96.80
56240;DHT22;42154;51.992;5.896;2023-07-30T14:38:49;23.10;96.70
56240;DHT22;42154;51.992;5.896;2023-07-30T14:41:15;23.10;96.50
56240;DHT22;42154;51.992;5.896;2023-07-30T14:43:41;23.10;96.50
56240;DHT22;42154;51.992;5.896;2023-07-30T14:46:07;23.30;96.50
56240;DHT22;42154;51.992;5.896;2023-07-30T14:48:40;23.50;96.00
56240;DHT22;42154;51.992;5.896;2023-07-30T14:51:06;23.50;95.70
56240;DHT22;42154;51.992;5.896;2023-07-30T14:53:33;23.30;95.60
56240;DHT22;42154;51.992;5.896;2023-07-30T14:55:58;23.20;95.90
56240;DHT22;42154;51.992;5.896;2023-07-30T14:58:24;23.00;96.20
56240;DHT22;42154;51.992;5.896;2023-07-30T15:00:50;23.00;96.60
56240;DHT22;42154;51.992;5.896;2023-07-30T15:03:15;23.00;96.50
56240;DHT22;42154;51.992;5.896;2023-07-30T15:05:41;23.00;96.20
56240;DHT22;42154;51.992;5.896;2023-07-30T15:08:07;23.00;96.10
56240;DHT22;42154;51.992;5.896;2023-07-30T15:10:33;23.10;96.20
56240;DHT22;42154;51.992;5.896;2023-07-30T15:12:58;23.30;96.20
56240;DHT22;42154;51.992;5.896;2023-07-30T15:15:24;23.60;96.10
56240;DHT22;42154;51.992;5.896;2023-07-30T15:17:50;23.60;95.50
56240;DHT22;42154;51.992;5.896;2023-07-30T15:20:16;23.60;95.50
56240;DHT22;42154;51.992;5.896;2023-07-30T15:22:41;23.50;95.90
56240;DHT22;42154;51.992;5.896;2023-07-30T15:25:07;23.40;96.30
56240;DHT22;42154;51.992;5.896;2023-07-30T15:27:33;23.30;96.20
56240;DHT22;42154;51.992;5.896;2023-07-30T15:29:59;23.20;96.30
56240;DHT22;42154;51.992;5.896;2023-07-30T15:32:25;23.10;96.10